To NAV CANADA Home Page Login to a new session Search on AWWS site Feedback and Comments Disclaimer Vers la page française équivalente Tips FAQ What's new on the site To the Forecasts and Observations / NOTAM section To "File a Flight Plan" website Publications and other links Update of the User's profile FIC Telephone Numbers My Weather Data Folder Route Weather Data Regional Weather Data Local Weather Data To the Forecasts and Observations / NOTAM section
Request Generated 02/12/2016 at 01:05:24 UTC . Weather information available at that time is displayed.

METAR/TAF

YARMOUTH/NS    

METAR CYQI 120100Z 36005KT 10SM -SHSN OVC025 M04/M05 A2961 RMK SC8
WND ESTD SLP031=
SPECI CYQI 120032Z CCA 32005KT 10SM -SHSN OVC025 M03/M06 A2961 RMK
SC8 WND ESTD SLP031=
SPECI CYQI 120032Z 03005KT 10SM -SHSN OVC025 M03/M06 A2961 RMK SC8
WND ESTD SLP031=
METAR CYQI 120000Z 32009KT 12SM BKN025 M03/M07 A2960 RMK SC7 WND ESTD
SLP028=
METAR CYQI 112300Z 32009KT 12SM BKN025 M02/M06 A2960 RMK SC7 WND ESTD
SLP026=

TAF CYQI 112338Z 1200/1212 31010KT P6SM BKN025 TEMPO 1200/1202 BKN020
FM120300 30015KT 1SM -SHSN VV008 TEMPO 1203/1206 3SM -SHSN SCT015
OVC030 PROB30 1203/1206 1/2SM SHSN VV004
FM120600 30012G22KT 6SM -SHSN BKN025 TEMPO 1206/1212 2SM -SHSN
BKN008 OVC025
RMK NXT FCST BY 120600Z=
Your time UTC time
Weather data provided by Environment Canada and NAV CANADA